首页
METAR-TAF:

METAR-TAF

机场 :

伊玛目霍梅尼国际机场

德黑兰, 伊朗

纬度: 35-24-58N, 经度: 51-09-08E, 海拔: 1007米

当前天气观测

该预报发布于39分钟前的08:30 UTC
静风
温度 26°C
湿度 16%
气压 1023 hPa
能见度10公里或以上
1500米以下无云,无积雨云

METAR: OIIE 170830Z 00000KT CAVOK 26/M02 Q1023

时间: 12:39 (09:09 UTC)

预报

该预报发布于3小时和39分钟前的05:30 UTC
预报有效从17日的 06点(UTC)到 18日的 12点(UTC)
风速8节,风向东转东南
能見度: 7000
少量云层高于4000英尺
短暂存在
从 17日的 09点(UTC)到 17日的 15点(UTC)
风速18节,风向南转南东
少量云层高于4000英尺, 塔状积云.
散云层高于10000英尺
短暂存在
从 17日的 20点(UTC)到 18日的 04点(UTC)
风速18节,风向东北
短暂存在
从 18日的 09点(UTC)到 18日的 12点(UTC)
风速18节,风向南转南东
少量云层高于3500英尺, 积雨云.
散云层高于4000英尺
多云层高于10000英尺

TAF: OIIE 170530Z 1706/1812 12008KT 7000 FEW040 TEMPO 1709/1715 16018KT FEW040TCU SCT100 TEMPO 1720/1804 04018KT TEMPO 1809/1812 16018KT FEW035CB SCT040 BKN100

超过4000个机场的气象观测和天气预报(METAR&TAF报告)。

可查询的气象台以黄色和红色小点在地图上表示。

将鼠标移到小点上方,可查看气象台名称。

然后点击查看天气观测和预报。

如需切换地图:点击带黑十字的绿色按钮放大地图;点击带横线的绿色按钮缩小地图;或者点击绿色箭头查看邻近地区的地图。


METAR-TAF: